createdAt,value
2017-05-06T00:00:38.617Z,0
2017-05-06T00:01:38.350Z,0
2017-05-06T00:02:38.394Z,0
2017-05-06T00:03:38.741Z,0
2017-05-06T00:04:38.455Z,0
2017-05-06T00:05:39.134Z,0
2017-05-06T00:06:38.841Z,0
2017-05-06T00:07:38.908Z,0
2017-05-06T00:08:38.905Z,0
2017-05-06T00:09:39.279Z,0
2017-05-06T00:10:38.982Z,0
2017-05-06T00:11:39.054Z,0
2017-05-06T00:12:39.066Z,0
2017-05-06T00:13:39.111Z,0
2017-05-06T00:14:39.428Z,0
2017-05-06T00:15:39.177Z,0
2017-05-06T00:16:39.248Z,0
2017-05-06T00:17:39.259Z,0
2017-05-06T00:18:39.277Z,0
2017-05-06T00:19:39.339Z,0
2017-05-06T00:20:39.673Z,0
2017-05-06T00:21:39.062Z,0
2017-05-06T00:22:39.441Z,0
2017-05-06T00:23:39.159Z,0
2017-05-06T00:24:39.215Z,0
2017-05-06T00:25:39.535Z,0
2017-05-06T00:26:39.264Z,0
2017-05-06T00:27:39.598Z,0
2017-05-06T00:28:39.320Z,0
2017-05-06T00:29:39.401Z,0
2017-05-06T00:30:39.403Z,0
2017-05-06T00:31:39.442Z,0
2017-05-06T00:32:39.824Z,0
2017-05-06T00:33:39.552Z,0
2017-05-06T00:34:39.540Z,0
2017-05-06T00:35:39.896Z,0
2017-05-06T00:36:39.950Z,0
2017-05-06T00:37:40.293Z,0
2017-05-06T00:38:40.041Z,0
2017-05-06T00:39:40.077Z,0
2017-05-06T00:40:39.777Z,0
2017-05-06T00:41:40.438Z,0
2017-05-06T00:42:40.202Z,0
2017-05-06T00:43:40.518Z,0
2017-05-06T00:44:40.251Z,0
2017-05-06T00:45:39.953Z,0
2017-05-06T00:46:40.013Z,0
2017-05-06T00:47:40.354Z,0
2017-05-06T00:48:40.709Z,0
2017-05-06T00:49:40.724Z,0
2017-05-06T00:50:40.162Z,0
2017-05-06T00:51:41.094Z,0
2017-05-06T00:52:40.437Z,0
2017-05-06T00:53:40.259Z,0
2017-05-06T00:54:40.620Z,0
2017-05-06T00:55:40.337Z,0
2017-05-06T00:56:40.370Z,0
2017-05-06T00:57:40.713Z,0
2017-05-06T00:58:40.954Z,0
2017-05-06T00:59:40.787Z,0
2017-05-06T01:00:40.521Z,0
2017-05-06T01:01:40.884Z,0
2017-05-06T01:02:40.894Z,0
2017-05-06T01:03:41.561Z,0
2017-05-06T01:04:40.968Z,0
2017-05-06T01:05:41.318Z,0
2017-05-06T01:06:41.388Z,0
2017-05-06T01:07:41.107Z,0
2017-05-06T01:08:41.461Z,0
2017-05-06T01:09:40.845Z,0
2017-05-06T01:10:40.894Z,0
2017-05-06T01:11:41.225Z,0
2017-05-06T01:12:40.956Z,0
2017-05-06T01:13:41.624Z,0
2017-05-06T01:14:41.649Z,0
2017-05-06T01:15:41.393Z,0
2017-05-06T01:16:41.102Z,0
2017-05-06T01:17:41.144Z,0
2017-05-06T01:18:41.473Z,0
2017-05-06T01:19:41.530Z,0
2017-05-06T01:20:41.563Z,0
2017-05-06T01:21:41.591Z,0
2017-05-06T01:22:41.645Z,0
2017-05-06T01:23:41.688Z,0
2017-05-06T01:24:41.702Z,0
2017-05-06T01:25:41.730Z,0
2017-05-06T01:26:41.768Z,0
2017-05-06T01:27:42.120Z,0
2017-05-06T01:28:41.847Z,0
2017-05-06T01:29:41.569Z,0
2017-05-06T01:30:41.608Z,0
2017-05-06T01:31:41.954Z,0
2017-05-06T01:32:42.303Z,0
2017-05-06T01:33:42.658Z,0
2017-05-06T01:34:41.753Z,0
2017-05-06T01:35:41.805Z,0
2017-05-06T01:36:42.139Z,0
2017-05-06T01:37:42.782Z,0
2017-05-06T01:38:42.528Z,0
2017-05-06T01:39:41.934Z,0
2017-05-06T01:40:41.979Z,0
2017-05-06T01:41:42.319Z,0
2017-05-06T01:42:42.356Z,0
2017-05-06T01:43:42.394Z,0
2017-05-06T01:44:42.420Z,0
2017-05-06T01:45:42.460Z,0
2017-05-06T01:46:42.498Z,0
2017-05-06T01:47:42.857Z,0
2017-05-06T01:48:42.258Z,0
2017-05-06T01:49:42.618Z,0
2017-05-06T01:50:42.965Z,0
2017-05-06T01:51:42.686Z,0
2017-05-06T01:52:42.717Z,0
2017-05-06T01:53:42.761Z,0
2017-05-06T01:54:43.112Z,0
2017-05-06T01:55:42.517Z,0
2017-05-06T01:56:42.561Z,0
2017-05-06T01:57:43.524Z,0
2017-05-06T01:58:43.247Z,0
2017-05-06T01:59:42.970Z,0
2017-05-06T02:00:42.704Z,0
2017-05-06T02:01:42.735Z,0
2017-05-06T02:02:44.034Z,0
2017-05-06T02:03:43.118Z,0
2017-05-06T02:04:43.487Z,0
2017-05-06T02:05:43.190Z,0
2017-05-06T02:06:43.240Z,0
2017-05-06T02:07:43.586Z,0
2017-05-06T02:08:43.305Z,0
2017-05-06T02:09:43.033Z,0
2017-05-06T02:10:43.070Z,0
2017-05-06T02:11:43.427Z,0
2017-05-06T02:12:43.461Z,0
2017-05-06T02:13:44.115Z,0
2017-05-06T02:14:44.142Z,0
2017-05-06T02:15:43.565Z,0
2017-05-06T02:16:43.287Z,0
2017-05-06T02:17:43.637Z,0
2017-05-06T02:18:43.993Z,0
2017-05-06T02:19:43.717Z,0
2017-05-06T02:20:43.748Z,0
2017-05-06T02:21:43.789Z,0
2017-05-06T02:22:43.841Z,0
2017-05-06T02:23:43.889Z,0
2017-05-06T02:24:44.198Z,0
2017-05-06T02:25:44.239Z,0
2017-05-06T02:26:43.966Z,0
2017-05-06T02:27:44.621Z,0
2017-05-06T02:28:44.357Z,0
2017-05-06T02:29:44.082Z,0
2017-05-06T02:30:43.802Z,0
2017-05-06T02:31:44.776Z,0
2017-05-06T02:32:44.180Z,0
2017-05-06T02:33:44.230Z,0
2017-05-06T02:34:43.952Z,0
2017-05-06T02:35:43.995Z,0
2017-05-06T02:36:44.645Z,0
2017-05-06T02:37:44.372Z,0
2017-05-06T02:38:44.097Z,0
2017-05-06T02:39:44.440Z,0
2017-05-06T02:40:44.484Z,0
2017-05-06T02:41:44.529Z,0
2017-05-06T02:42:44.860Z,0
2017-05-06T02:43:44.905Z,0
2017-05-06T02:44:44.949Z,0
2017-05-06T02:45:44.351Z,0
2017-05-06T02:46:44.704Z,0
2017-05-06T02:47:45.356Z,0
2017-05-06T02:48:44.782Z,0
2017-05-06T02:49:44.500Z,0
2017-05-06T02:50:44.534Z,0
2017-05-06T02:51:45.212Z,0
2017-05-06T02:52:45.231Z,0
2017-05-06T02:53:45.274Z,0
2017-05-06T02:54:44.986Z,0
2017-05-06T02:55:44.723Z,0
2017-05-06T02:56:44.785Z,0
2017-05-06T02:57:45.418Z,0
2017-05-06T02:58:45.766Z,0
2017-05-06T02:59:45.176Z,0
2017-05-06T03:00:44.899Z,0
2017-05-06T03:01:44.936Z,0
2017-05-06T03:02:44.974Z,0
2017-05-06T03:03:45.633Z,0
2017-05-06T03:04:45.050Z,0
2017-05-06T03:05:45.124Z,0
2017-05-06T03:06:45.130Z,0
2017-05-06T03:07:45.176Z,0
2017-05-06T03:08:45.519Z,0
2017-05-06T03:09:45.552Z,0
2017-05-06T03:10:45.266Z,0
2017-05-06T03:11:45.618Z,0
2017-05-06T03:12:45.651Z,0
2017-05-06T03:13:45.685Z,0
2017-05-06T03:14:45.723Z,0
2017-05-06T03:15:45.453Z,0
2017-05-06T03:16:45.792Z,0
2017-05-06T03:17:45.847Z,0
2017-05-06T03:18:45.877Z,0
2017-05-06T03:19:45.597Z,0
2017-05-06T03:20:45.660Z,0
2017-05-06T03:21:45.980Z,0
2017-05-06T03:22:46.018Z,0
2017-05-06T03:23:46.052Z,0
2017-05-06T03:24:45.789Z,0
2017-05-06T03:25:45.827Z,0
2017-05-06T03:26:46.195Z,0
2017-05-06T03:27:46.518Z,0
2017-05-06T03:28:45.934Z,0
2017-05-06T03:29:46.280Z,0
2017-05-06T03:30:46.014Z,0
2017-05-06T03:31:46.040Z,0
2017-05-06T03:32:46.705Z,0
2017-05-06T03:33:46.728Z,0
2017-05-06T03:34:46.485Z,0
2017-05-06T03:35:46.194Z,0
2017-05-06T03:36:46.228Z,0
2017-05-06T03:37:47.190Z,0
2017-05-06T03:38:46.917Z,0
2017-05-06T03:39:46.646Z,0
2017-05-06T03:40:46.991Z,0
2017-05-06T03:41:47.340Z,0
2017-05-06T03:42:46.748Z,0
2017-05-06T03:43:47.102Z,0
2017-05-06T03:44:46.832Z,0
2017-05-06T03:45:46.560Z,0
2017-05-06T03:46:46.590Z,0
2017-05-06T03:47:46.930Z,0
2017-05-06T03:48:47.279Z,0
2017-05-06T03:49:47.012Z,0
2017-05-06T03:50:46.742Z,0
2017-05-06T03:51:46.774Z,0
2017-05-06T03:52:46.809Z,0
2017-05-06T03:53:46.852Z,0
2017-05-06T03:54:46.884Z,0
2017-05-06T03:55:47.556Z,0
2017-05-06T03:56:47.260Z,0
2017-05-06T03:57:47.616Z,0
2017-05-06T03:58:47.335Z,0
2017-05-06T03:59:47.698Z,0
2017-05-06T04:00:47.098Z,0
2017-05-06T04:01:47.143Z,0
2017-05-06T04:02:47.189Z,0
2017-05-06T04:03:47.523Z,0
2017-05-06T04:04:47.557Z,0
2017-05-06T04:05:47.289Z,5
2017-05-06T04:06:47.322Z,5
2017-05-06T04:07:47.986Z,5
2017-05-06T04:08:48.020Z,5
2017-05-06T04:09:47.438Z,5
2017-05-06T04:10:47.775Z,5
2017-05-06T04:11:47.818Z,5
2017-05-06T04:12:47.851Z,5
2017-05-06T04:13:47.896Z,5
2017-05-06T04:14:48.238Z,5
2017-05-06T04:15:48.279Z,10
2017-05-06T04:16:48.015Z,10
2017-05-06T04:17:48.038Z,10
2017-05-06T04:18:48.396Z,10
2017-05-06T04:19:48.449Z,15
2017-05-06T04:20:48.146Z,15
2017-05-06T04:21:48.185Z,15
2017-05-06T04:22:48.213Z,20
2017-05-06T04:23:49.193Z,20
2017-05-06T04:24:48.605Z,20
2017-05-06T04:25:48.661Z,20
2017-05-06T04:26:48.057Z,20
2017-05-06T04:27:48.402Z,20
2017-05-06T04:28:48.140Z,20
2017-05-06T04:29:48.165Z,20
2017-05-06T04:30:48.210Z,20
2017-05-06T04:31:48.561Z,20
2017-05-06T04:32:48.893Z,25
2017-05-06T04:33:49.241Z,25
2017-05-06T04:34:48.367Z,25
2017-05-06T04:35:48.715Z,20
2017-05-06T04:36:49.049Z,20
2017-05-06T04:37:49.082Z,20
2017-05-06T04:38:48.822Z,20
2017-05-06T04:39:48.843Z,20
2017-05-06T04:40:48.889Z,20
2017-05-06T04:41:49.540Z,20
2017-05-06T04:42:49.585Z,20
2017-05-06T04:43:48.995Z,20
2017-05-06T04:44:49.645Z,20
2017-05-06T04:45:49.077Z,20
2017-05-06T04:46:49.128Z,20
2017-05-06T04:47:49.140Z,20
2017-05-06T04:48:49.482Z,20
2017-05-06T04:49:48.901Z,20
2017-05-06T04:50:48.953Z,20
2017-05-06T04:51:49.282Z,20
2017-05-06T04:52:49.329Z,25
2017-05-06T04:53:49.063Z,25
2017-05-06T04:54:49.408Z,20
2017-05-06T04:55:49.438Z,20
2017-05-06T04:56:49.473Z,25
2017-05-06T04:57:50.137Z,25
2017-05-06T04:58:49.549Z,25
2017-05-06T04:59:49.586Z,25
2017-05-06T05:00:49.935Z,20
2017-05-06T05:01:49.655Z,25
2017-05-06T05:02:49.695Z,25
2017-05-06T05:03:50.374Z,25
2017-05-06T05:04:49.467Z,25
2017-05-06T05:05:49.803Z,25
2017-05-06T05:06:49.530Z,30
2017-05-06T05:07:49.877Z,30
2017-05-06T05:08:49.603Z,30
2017-05-06T05:09:49.959Z,35
2017-05-06T05:10:49.674Z,35
2017-05-06T05:11:50.028Z,35
2017-05-06T05:12:50.053Z,35
2017-05-06T05:13:50.110Z,35
2017-05-06T05:14:49.821Z,40
2017-05-06T05:15:49.880Z,40
2017-05-06T05:16:50.516Z,35
2017-05-06T05:17:49.942Z,40
2017-05-06T05:18:50.297Z,40
2017-05-06T05:19:50.321Z,40
2017-05-06T05:20:50.978Z,40
2017-05-06T05:21:50.077Z,40
2017-05-06T05:22:50.432Z,40
2017-05-06T05:23:50.478Z,40
2017-05-06T05:24:50.190Z,40
2017-05-06T05:25:50.231Z,45
2017-05-06T05:26:51.198Z,45
2017-05-06T05:27:50.622Z,40
2017-05-06T05:28:50.659Z,40
2017-05-06T05:29:50.681Z,40
2017-05-06T05:30:50.410Z,45
2017-05-06T05:31:50.453Z,45
2017-05-06T05:32:50.807Z,45
2017-05-06T05:33:50.840Z,50
2017-05-06T05:34:51.489Z,50
2017-05-06T05:35:50.600Z,55
2017-05-06T05:36:50.638Z,60
2017-05-06T05:37:51.295Z,65
2017-05-06T05:38:50.705Z,70
2017-05-06T05:39:51.366Z,65
2017-05-06T05:40:51.099Z,70
2017-05-06T05:41:50.825Z,70
2017-05-06T05:42:51.169Z,65
2017-05-06T05:43:51.225Z,70
2017-05-06T05:44:51.546Z,75
2017-05-06T05:45:50.969Z,75
2017-05-06T05:46:51.001Z,80
2017-05-06T05:47:51.351Z,80
2017-05-06T05:48:51.075Z,80
2017-05-06T05:49:51.445Z,80
2017-05-06T05:50:51.764Z,85
2017-05-06T05:51:51.180Z,85
2017-05-06T05:52:51.223Z,90
2017-05-06T05:53:51.258Z,95
2017-05-06T05:54:51.610Z,100
2017-05-06T05:55:51.643Z,100
2017-05-06T05:56:51.686Z,95
2017-05-06T05:57:51.723Z,105
2017-05-06T05:58:52.063Z,95
2017-05-06T05:59:51.489Z,75
2017-05-06T06:00:51.516Z,65
2017-05-06T06:01:51.553Z,65
2017-05-06T06:02:51.636Z,65
2017-05-06T06:03:51.948Z,65
2017-05-06T06:04:51.975Z,60
2017-05-06T06:05:51.712Z,60
2017-05-06T06:06:52.362Z,60
2017-05-06T06:07:51.779Z,60
2017-05-06T06:08:52.119Z,60
2017-05-06T06:09:52.168Z,60
2017-05-06T06:10:52.222Z,60
2017-05-06T06:11:51.924Z,60
2017-05-06T06:12:51.967Z,60
2017-05-06T06:13:52.001Z,60
2017-05-06T06:14:52.656Z,65
2017-05-06T06:15:52.376Z,60
2017-05-06T06:16:52.725Z,55
2017-05-06T06:17:52.454Z,55
2017-05-06T06:18:52.819Z,55
2017-05-06T06:19:52.530Z,60
2017-05-06T06:20:52.575Z,60
2017-05-06T06:21:52.613Z,65
2017-05-06T06:22:52.333Z,70
2017-05-06T06:23:52.369Z,75
2017-05-06T06:24:52.724Z,80
2017-05-06T06:25:52.442Z,80
2017-05-06T06:26:52.481Z,80
2017-05-06T06:27:53.131Z,85
2017-05-06T06:28:52.871Z,80
2017-05-06T06:29:52.589Z,80
2017-05-06T06:30:52.943Z,80
2017-05-06T06:31:52.662Z,85
2017-05-06T06:32:53.319Z,100
2017-05-06T06:33:53.046Z,105
2017-05-06T06:34:52.774Z,115
2017-05-06T06:35:53.430Z,110
2017-05-06T06:36:53.162Z,125
2017-05-06T06:37:52.949Z,135
2017-05-06T06:38:53.231Z,135
2017-05-06T06:39:53.275Z,140
2017-05-06T06:40:53.018Z,145
2017-05-06T06:41:53.051Z,125
2017-05-06T06:42:53.694Z,115
2017-05-06T06:43:53.768Z,130
2017-05-06T06:44:53.150Z,130
2017-05-06T06:45:53.804Z,125
2017-05-06T06:46:53.223Z,135
2017-05-06T06:47:53.873Z,135
2017-05-06T06:48:53.918Z,125
2017-05-06T06:49:53.392Z,120
2017-05-06T06:50:54.302Z,115
2017-05-06T06:51:53.425Z,110
2017-05-06T06:52:53.450Z,125
2017-05-06T06:53:53.787Z,125
2017-05-06T06:54:54.141Z,125
2017-05-06T06:55:53.564Z,135
2017-05-06T06:56:53.596Z,125
2017-05-06T06:57:53.959Z,125
2017-05-06T06:58:53.676Z,120
2017-05-06T06:59:53.726Z,110
2017-05-06T07:00:54.056Z,120
2017-05-06T07:01:54.108Z,135
2017-05-06T07:02:54.136Z,130
2017-05-06T07:03:54.184Z,120
2017-05-06T07:04:53.908Z,110
2017-05-06T07:05:54.254Z,105
2017-05-06T07:06:54.603Z,115
2017-05-06T07:07:54.326Z,115
2017-05-06T07:08:54.679Z,130
2017-05-06T07:09:55.017Z,125
2017-05-06T07:10:54.747Z,125
2017-05-06T07:11:54.473Z,125
2017-05-06T07:12:54.197Z,120
2017-05-06T07:13:54.859Z,110
2017-05-06T07:14:54.588Z,110
2017-05-06T07:15:54.965Z,100
2017-05-06T07:16:54.657Z,90
2017-05-06T07:17:54.694Z,90
2017-05-06T07:18:54.756Z,110
2017-05-06T07:19:55.092Z,120
2017-05-06T07:20:54.518Z,120
2017-05-06T07:21:54.853Z,110
2017-05-06T07:22:54.580Z,105
2017-05-06T07:23:55.554Z,115
2017-05-06T07:24:55.293Z,120
2017-05-06T07:25:54.704Z,110
2017-05-06T07:26:55.045Z,100
2017-05-06T07:27:54.777Z,120
2017-05-06T07:28:55.433Z,120
2017-05-06T07:29:54.840Z,110
2017-05-06T07:30:55.219Z,95
2017-05-06T07:31:55.244Z,95
2017-05-06T07:32:55.276Z,95
2017-05-06T07:33:54.994Z,105
2017-05-06T07:34:55.031Z,120
2017-05-06T07:35:55.394Z,100
2017-05-06T07:36:55.413Z,105
2017-05-06T07:37:55.799Z,115
2017-05-06T07:38:55.502Z,115
2017-05-06T07:39:55.847Z,115
2017-05-06T07:40:55.257Z,125
2017-05-06T07:41:55.291Z,115
2017-05-06T07:42:55.350Z,105
2017-05-06T07:43:55.688Z,110
2017-05-06T07:44:55.418Z,110
2017-05-06T07:45:55.760Z,120
2017-05-06T07:46:55.492Z,120
2017-05-06T07:47:55.529Z,115
2017-05-06T07:48:55.888Z,100
2017-05-06T07:49:55.601Z,95
2017-05-06T07:50:55.942Z,105
2017-05-06T07:51:55.679Z,115
2017-05-06T07:52:55.713Z,120
2017-05-06T07:53:56.367Z,110
2017-05-06T07:54:56.415Z,100
2017-05-06T07:55:55.825Z,105
2017-05-06T07:56:56.490Z,110
2017-05-06T07:57:56.839Z,115
2017-05-06T07:58:55.940Z,115
2017-05-06T07:59:55.982Z,115
2017-05-06T08:00:56.015Z,120
2017-05-06T08:01:56.047Z,130
2017-05-06T08:02:56.399Z,140
2017-05-06T08:03:56.442Z,145
2017-05-06T08:04:56.482Z,165
2017-05-06T08:05:56.209Z,185
2017-05-06T08:06:56.548Z,200
2017-05-06T08:07:56.596Z,205
2017-05-06T08:08:56.356Z,205
2017-05-06T08:09:56.361Z,220
2017-05-06T08:10:56.719Z,215
2017-05-06T08:11:56.751Z,195
2017-05-06T08:12:56.474Z,175
2017-05-06T08:13:56.817Z,175
2017-05-06T08:14:56.860Z,170
2017-05-06T08:15:57.219Z,165
2017-05-06T08:16:57.255Z,170
2017-05-06T08:17:56.974Z,175
2017-05-06T08:18:56.698Z,175
2017-05-06T08:19:57.054Z,175
2017-05-06T08:20:57.086Z,155
2017-05-06T08:21:57.130Z,155
2017-05-06T08:22:57.167Z,180
2017-05-06T08:23:57.522Z,195
2017-05-06T08:24:57.243Z,180
2017-05-06T08:25:56.973Z,190
2017-05-06T08:26:57.007Z,210
2017-05-06T08:27:57.669Z,230
2017-05-06T08:28:57.093Z,235
2017-05-06T08:29:57.427Z,220
2017-05-06T08:30:57.158Z,195
2017-05-06T08:31:57.207Z,190
2017-05-06T08:32:57.549Z,185
2017-05-06T08:33:58.248Z,175
2017-05-06T08:34:57.929Z,165
2017-05-06T08:35:57.360Z,155
2017-05-06T08:36:57.399Z,160
2017-05-06T08:37:57.762Z,175
2017-05-06T08:38:57.775Z,175
2017-05-06T08:39:57.504Z,180
2017-05-06T08:40:57.550Z,190
2017-05-06T08:41:57.893Z,170
2017-05-06T08:42:57.938Z,165
2017-05-06T08:43:58.582Z,175
2017-05-06T08:44:57.717Z,185
2017-05-06T08:45:57.753Z,185
2017-05-06T08:46:58.090Z,190
2017-05-06T08:47:57.813Z,220
2017-05-06T08:48:57.854Z,245
2017-05-06T08:49:57.896Z,240
2017-05-06T08:50:58.267Z,220
2017-05-06T08:51:58.287Z,225
2017-05-06T08:52:58.323Z,235
2017-05-06T08:53:58.678Z,260
2017-05-06T08:54:58.089Z,255
2017-05-06T08:55:58.132Z,240
2017-05-06T08:56:58.479Z,220
2017-05-06T08:57:58.201Z,220
2017-05-06T08:58:58.540Z,220
2017-05-06T08:59:58.282Z,215
2017-05-06T09:00:58.327Z,225
2017-05-06T09:01:58.379Z,225
2017-05-06T09:02:58.708Z,220
2017-05-06T09:03:58.443Z,220
2017-05-06T09:04:58.791Z,230
2017-05-06T09:05:58.554Z,240
2017-05-06T09:06:58.867Z,255
2017-05-06T09:07:59.213Z,255
2017-05-06T09:08:58.629Z,255
2017-05-06T09:09:59.332Z,255
2017-05-06T09:10:58.708Z,255
2017-05-06T09:11:59.069Z,260
2017-05-06T09:12:59.096Z,255
2017-05-06T09:13:58.832Z,250
2017-05-06T09:14:59.803Z,245
2017-05-06T09:15:59.221Z,245
2017-05-06T09:16:59.254Z,235
2017-05-06T09:17:59.608Z,225
2017-05-06T09:18:59.364Z,220
2017-05-06T09:19:59.372Z,215
2017-05-06T09:20:59.111Z,210
2017-05-06T09:21:59.155Z,210
2017-05-06T09:22:59.495Z,205
2017-05-06T09:23:59.843Z,205
2017-05-06T09:24:59.572Z,200
2017-05-06T09:25:59.612Z,195
2017-05-06T09:26:59.657Z,195
2017-05-06T09:27:59.702Z,190
2017-05-06T09:28:59.434Z,190
2017-05-06T09:29:59.456Z,195
2017-05-06T09:30:59.513Z,190
2017-05-06T09:31:59.544Z,195
2017-05-06T09:33:00.197Z,205
2017-05-06T09:34:00.237Z,230
2017-05-06T09:34:59.970Z,260
2017-05-06T09:36:00.039Z,270
2017-05-06T09:37:00.041Z,280
2017-05-06T09:37:59.773Z,290
2017-05-06T09:39:00.436Z,295
2017-05-06T09:40:00.472Z,310
2017-05-06T09:41:00.110Z,355
2017-05-06T09:42:00.250Z,395
2017-05-06T09:42:59.965Z,410
2017-05-06T09:44:00.010Z,400
2017-05-06T09:45:00.358Z,405
2017-05-06T09:46:00.410Z,415
2017-05-06T09:47:00.126Z,470
2017-05-06T09:48:00.484Z,455
2017-05-06T09:49:00.512Z,510
2017-05-06T09:50:00.573Z,880
2017-05-06T09:51:00.606Z,1175
2017-05-06T09:52:00.329Z,975
2017-05-06T09:53:00.681Z,1050
2017-05-06T09:54:00.413Z,1355
2017-05-06T09:55:00.453Z,1955
2017-05-06T09:56:00.501Z,2045
2017-05-06T09:57:00.540Z,2185
2017-05-06T09:58:00.892Z,2055
2017-05-06T09:59:00.625Z,2120
2017-05-06T10:00:00.711Z,2080
2017-05-06T10:01:00.716Z,2140
2017-05-06T10:02:00.764Z,2170
2017-05-06T10:03:00.805Z,2105
2017-05-06T10:04:00.853Z,2090
2017-05-06T10:05:00.897Z,2175
2017-05-06T10:06:01.246Z,2155
2017-05-06T10:07:00.992Z,1055
2017-05-06T10:08:01.649Z,1610
2017-05-06T10:09:01.390Z,965
2017-05-06T10:10:01.751Z,990
2017-05-06T10:11:01.531Z,2035
2017-05-06T10:12:01.533Z,1825
2017-05-06T10:13:01.635Z,2130
2017-05-06T10:14:01.638Z,1625
2017-05-06T10:15:01.378Z,1330
2017-05-06T10:16:01.428Z,920
2017-05-06T10:17:01.795Z,1125
2017-05-06T10:18:01.830Z,1355
2017-05-06T10:19:01.573Z,915
2017-05-06T10:20:01.933Z,545
2017-05-06T10:21:01.668Z,395
2017-05-06T10:22:02.019Z,395
2017-05-06T10:23:02.383Z,550
2017-05-06T10:24:02.454Z,1160
2017-05-06T10:25:01.861Z,575
2017-05-06T10:26:01.903Z,700
2017-05-06T10:27:02.258Z,1305
2017-05-06T10:28:02.310Z,695
2017-05-06T10:29:02.049Z,765
2017-05-06T10:30:02.094Z,1325
2017-05-06T10:31:02.158Z,1685
2017-05-06T10:32:02.804Z,1730
2017-05-06T10:33:02.243Z,745
2017-05-06T10:34:02.588Z,1085
2017-05-06T10:35:02.976Z,950
2017-05-06T10:36:02.381Z,690
2017-05-06T10:37:02.727Z,1860
2017-05-06T10:38:02.477Z,1960
2017-05-06T10:39:02.832Z,1995
2017-05-06T10:40:02.570Z,2105
2017-05-06T10:41:02.624Z,1970
2017-05-06T10:42:02.969Z,2035
2017-05-06T10:43:02.738Z,1240
2017-05-06T10:44:03.064Z,755
2017-05-06T10:45:02.812Z,1570
2017-05-06T10:46:02.855Z,595
2017-05-06T10:47:02.900Z,530
2017-05-06T10:48:02.950Z,1370
2017-05-06T10:49:03.009Z,2085
2017-05-06T10:50:03.371Z,2060
2017-05-06T10:51:03.106Z,2010
2017-05-06T10:52:03.150Z,1440
2017-05-06T10:53:03.205Z,595
2017-05-06T10:54:04.177Z,610
2017-05-06T10:55:03.915Z,505
2017-05-06T10:56:03.657Z,570
2017-05-06T10:57:03.719Z,1920
2017-05-06T10:58:03.454Z,510
2017-05-06T10:59:03.799Z,685
2017-05-06T11:00:04.161Z,1845
2017-05-06T11:01:03.905Z,1940
2017-05-06T11:02:04.558Z,1840
2017-05-06T11:03:03.682Z,560
2017-05-06T11:04:04.033Z,1090
2017-05-06T11:05:04.393Z,545
2017-05-06T11:06:04.143Z,755
2017-05-06T11:07:04.508Z,455
2017-05-06T11:08:04.276Z,510
2017-05-06T11:09:04.583Z,640
2017-05-06T11:10:04.016Z,655
2017-05-06T11:11:04.068Z,585
2017-05-06T11:12:05.044Z,405
2017-05-06T11:13:04.473Z,480
2017-05-06T11:14:04.815Z,425
2017-05-06T11:15:04.569Z,455
2017-05-06T11:16:04.306Z,500
2017-05-06T11:17:04.658Z,540
2017-05-06T11:18:04.693Z,530
2017-05-06T11:19:04.440Z,520
2017-05-06T11:20:04.500Z,525
2017-05-06T11:21:04.530Z,530
2017-05-06T11:22:04.571Z,520
2017-05-06T11:23:05.251Z,510
2017-05-06T11:24:05.284Z,505
2017-05-06T11:25:05.024Z,520
2017-05-06T11:26:04.760Z,505
2017-05-06T11:27:05.111Z,455
2017-05-06T11:28:05.157Z,465
2017-05-06T11:29:04.898Z,500
2017-05-06T11:30:05.252Z,520
2017-05-06T11:31:05.302Z,525
2017-05-06T11:32:05.036Z,445
2017-05-06T11:33:05.072Z,455
2017-05-06T11:34:05.127Z,345
2017-05-06T11:35:05.476Z,335
2017-05-06T11:36:05.517Z,365
2017-05-06T11:37:05.901Z,365
2017-05-06T11:38:05.922Z,355
2017-05-06T11:39:06.297Z,345
2017-05-06T11:40:05.704Z,345
2017-05-06T11:41:05.443Z,310
2017-05-06T11:42:05.490Z,290
2017-05-06T11:43:05.827Z,255
2017-05-06T11:44:06.496Z,225
2017-05-06T11:45:05.959Z,235
2017-05-06T11:46:05.654Z,265
2017-05-06T11:47:06.007Z,315
2017-05-06T11:48:05.764Z,375
2017-05-06T11:49:05.789Z,445
2017-05-06T11:50:06.137Z,445
2017-05-06T11:51:06.498Z,395
2017-05-06T11:52:05.921Z,395
2017-05-06T11:53:05.963Z,385
2017-05-06T11:54:06.313Z,305
2017-05-06T11:55:06.361Z,225
2017-05-06T11:56:06.397Z,230
2017-05-06T11:57:06.442Z,260
2017-05-06T11:58:06.493Z,315
2017-05-06T11:59:06.522Z,405
2017-05-06T12:00:06.568Z,470
2017-05-06T12:01:06.313Z,465
2017-05-06T12:02:06.665Z,480
2017-05-06T12:03:06.393Z,485
2017-05-06T12:04:06.445Z,495
2017-05-06T12:05:06.796Z,495
2017-05-06T12:06:06.507Z,495
2017-05-06T12:07:06.570Z,440
2017-05-06T12:08:07.527Z,435
2017-05-06T12:09:06.645Z,430
2017-05-06T12:10:06.705Z,425
2017-05-06T12:11:06.758Z,420
2017-05-06T12:12:07.106Z,405
2017-05-06T12:13:07.121Z,370
2017-05-06T12:14:07.480Z,365
2017-05-06T12:15:06.930Z,375
2017-05-06T12:16:07.578Z,380
2017-05-06T12:17:07.323Z,395
2017-05-06T12:18:07.035Z,395
2017-05-06T12:19:07.393Z,400
2017-05-06T12:20:07.760Z,400
2017-05-06T12:21:07.159Z,400
2017-05-06T12:22:07.852Z,415
2017-05-06T12:23:07.276Z,425
2017-05-06T12:24:07.302Z,435
2017-05-06T12:25:07.329Z,445
2017-05-06T12:26:07.685Z,445
2017-05-06T12:27:07.724Z,450
2017-05-06T12:28:07.464Z,420
2017-05-06T12:29:07.534Z,395
2017-05-06T12:30:07.547Z,375
2017-05-06T12:31:07.934Z,370
2017-05-06T12:32:07.979Z,345
2017-05-06T12:33:08.289Z,270
2017-05-06T12:34:08.335Z,230
2017-05-06T12:35:08.377Z,210
2017-05-06T12:36:07.804Z,200
2017-05-06T12:37:08.462Z,185
2017-05-06T12:38:08.198Z,190
2017-05-06T12:39:08.272Z,200
2017-05-06T12:40:08.288Z,205
2017-05-06T12:41:08.020Z,195
2017-05-06T12:42:08.680Z,195
2017-05-06T12:43:08.145Z,190
2017-05-06T12:44:08.456Z,180
2017-05-06T12:45:08.207Z,175
2017-05-06T12:46:08.539Z,175
2017-05-06T12:47:08.596Z,165
2017-05-06T12:48:08.619Z,150
2017-05-06T12:49:08.684Z,120
2017-05-06T12:50:08.716Z,100
2017-05-06T12:51:08.745Z,90
2017-05-06T12:52:08.479Z,95
2017-05-06T12:53:08.851Z,90
2017-05-06T12:54:08.872Z,95
2017-05-06T12:55:08.930Z,100
2017-05-06T12:56:08.987Z,105
2017-05-06T12:57:09.619Z,110
2017-05-06T12:58:08.729Z,120
2017-05-06T12:59:08.801Z,130
2017-05-06T13:00:08.814Z,150
2017-05-06T13:01:09.183Z,160
2017-05-06T13:02:09.222Z,175
2017-05-06T13:03:09.246Z,195
2017-05-06T13:04:08.976Z,235
2017-05-06T13:05:09.326Z,260
2017-05-06T13:06:09.385Z,265
2017-05-06T13:07:09.156Z,270
2017-05-06T13:08:09.143Z,275
2017-05-06T13:09:09.497Z,280
2017-05-06T13:10:09.233Z,295
2017-05-06T13:11:09.593Z,310
2017-05-06T13:12:09.933Z,315
2017-05-06T13:13:09.673Z,315
2017-05-06T13:14:09.407Z,315
2017-05-06T13:15:09.744Z,325
2017-05-06T13:16:09.492Z,330
2017-05-06T13:17:09.515Z,315
2017-05-06T13:18:09.574Z,310
2017-05-06T13:19:10.213Z,300
2017-05-06T13:20:09.967Z,285
2017-05-06T13:21:09.995Z,290
2017-05-06T13:22:10.053Z,315
2017-05-06T13:23:10.383Z,325
2017-05-06T13:24:09.824Z,325
2017-05-06T13:25:10.158Z,335
2017-05-06T13:26:09.891Z,310
2017-05-06T13:27:09.945Z,305
2017-05-06T13:28:10.306Z,285
2017-05-06T13:29:10.647Z,265
2017-05-06T13:30:10.363Z,245
2017-05-06T13:31:11.023Z,230
2017-05-06T13:32:10.755Z,235
2017-05-06T13:33:10.220Z,240
2017-05-06T13:34:10.842Z,255
2017-05-06T13:35:10.905Z,270
2017-05-06T13:36:10.632Z,275
2017-05-06T13:37:10.991Z,265
2017-05-06T13:38:11.005Z,250
2017-05-06T13:39:10.453Z,240
2017-05-06T13:40:10.522Z,235
2017-05-06T13:41:11.199Z,235
2017-05-06T13:42:10.886Z,240
2017-05-06T13:43:10.611Z,240
2017-05-06T13:44:10.654Z,250
2017-05-06T13:45:10.700Z,245
2017-05-06T13:46:11.058Z,250
2017-05-06T13:47:11.076Z,260
2017-05-06T13:48:10.807Z,265
2017-05-06T13:49:11.022Z,280
2017-05-06T13:50:11.224Z,310
2017-05-06T13:51:11.547Z,330
2017-05-06T13:52:11.592Z,325
2017-05-06T13:53:11.342Z,295
2017-05-06T13:54:11.064Z,260
2017-05-06T13:55:11.100Z,225
2017-05-06T13:56:11.146Z,190
2017-05-06T13:57:11.506Z,185
2017-05-06T13:58:11.551Z,195
2017-05-06T13:59:11.282Z,195
2017-05-06T14:00:11.327Z,190
2017-05-06T14:01:11.349Z,170
2017-05-06T14:02:11.696Z,165
2017-05-06T14:03:12.047Z,180
2017-05-06T14:04:11.798Z,180
2017-05-06T14:05:11.514Z,185
2017-05-06T14:06:11.604Z,190
2017-05-06T14:07:11.598Z,195